createdAt,value
2018-12-06T00:01:13.753Z,-3.88
2018-12-06T00:03:41.261Z,-3.78
2018-12-06T00:06:08.803Z,-3.72
2018-12-06T00:08:38.271Z,-3.68
2018-12-06T00:11:05.805Z,-3.67
2018-12-06T00:13:33.302Z,-3.63
2018-12-06T00:16:00.973Z,-3.66
2018-12-06T00:18:29.449Z,-3.60
2018-12-06T00:20:57.034Z,-3.53
2018-12-06T00:23:24.599Z,-3.47
2018-12-06T00:25:52.112Z,-3.41
2018-12-06T00:28:19.821Z,-3.37
2018-12-06T00:30:47.337Z,-3.32
2018-12-06T00:33:15.369Z,-3.27
2018-12-06T00:35:43.035Z,-3.24
2018-12-06T00:38:10.577Z,-3.20
2018-12-06T00:40:38.992Z,-3.17
2018-12-06T00:43:06.529Z,-3.09
2018-12-06T00:45:34.033Z,-3.03
2018-12-06T00:48:01.591Z,-2.94
2018-12-06T00:50:29.081Z,-2.86
2018-12-06T00:52:57.557Z,-2.76
2018-12-06T00:55:25.159Z,-2.66
2018-12-06T00:57:52.659Z,-2.59
2018-12-06T01:00:20.424Z,-2.63
2018-12-06T01:02:47.920Z,-2.61
2018-12-06T01:05:15.444Z,-2.59
2018-12-06T01:07:43.672Z,-2.61
2018-12-06T01:10:11.171Z,-2.59
2018-12-06T01:12:38.853Z,-2.50
2018-12-06T01:15:06.627Z,-2.35
2018-12-06T01:17:34.121Z,-2.26
2018-12-06T01:20:01.653Z,-2.16
2018-12-06T01:22:29.145Z,-2.07
2018-12-06T01:24:56.852Z,-1.97
2018-12-06T01:27:25.346Z,-1.90
2018-12-06T01:29:54.224Z,-1.86
2018-12-06T01:32:21.799Z,-1.82
2018-12-06T01:34:49.387Z,-1.80
2018-12-06T01:37:16.914Z,-1.75
2018-12-06T01:39:44.432Z,-1.73
2018-12-06T01:42:11.968Z,-1.71
2018-12-06T01:44:39.510Z,-1.73
2018-12-06T01:47:07.188Z,-1.71
2018-12-06T01:49:34.751Z,-1.69
2018-12-06T01:52:02.250Z,-1.68
2018-12-06T01:54:29.802Z,-1.65
2018-12-06T01:56:57.375Z,-1.66
2018-12-06T01:59:25.076Z,-1.64
2018-12-06T02:01:52.588Z,-1.60
2018-12-06T02:04:20.084Z,-1.56
2018-12-06T02:06:47.607Z,-1.52
2018-12-06T02:09:15.215Z,-1.49
2018-12-06T02:11:42.740Z,-1.48
2018-12-06T02:14:10.307Z,-1.49
2018-12-06T02:16:37.897Z,-1.52
2018-12-06T02:19:05.395Z,-1.52
2018-12-06T02:21:33.823Z,-1.55
2018-12-06T02:24:01.353Z,-1.60
2018-12-06T02:26:28.874Z,-1.64
2018-12-06T02:28:56.741Z,-1.65
2018-12-06T02:31:24.232Z,-1.63
2018-12-06T02:33:51.748Z,-1.64
2018-12-06T02:36:19.271Z,-1.64
2018-12-06T02:38:46.761Z,-1.67
2018-12-06T02:41:14.313Z,-1.67
2018-12-06T02:43:41.827Z,-1.67
2018-12-06T02:46:09.327Z,-1.67
2018-12-06T02:48:36.852Z,-1.68
2018-12-06T02:51:04.348Z,-1.67
2018-12-06T02:53:31.845Z,-1.66
2018-12-06T02:55:59.537Z,-1.62
2018-12-06T02:58:27.066Z,-1.61
2018-12-06T03:00:54.556Z,-1.59
2018-12-06T03:03:22.081Z,-1.60
2018-12-06T03:05:49.569Z,-1.58
2018-12-06T03:08:18.096Z,-1.58
2018-12-06T03:10:45.621Z,-1.60
2018-12-06T03:13:13.409Z,-1.63
2018-12-06T03:15:40.984Z,-1.65
2018-12-06T03:18:08.489Z,-1.65
2018-12-06T03:20:36.005Z,-1.61
2018-12-06T03:23:03.509Z,-1.62
2018-12-06T03:25:31.184Z,-1.58
2018-12-06T03:27:58.671Z,-1.56
2018-12-06T03:30:26.166Z,-1.56
2018-12-06T03:32:53.714Z,-1.53
2018-12-06T03:35:21.204Z,-1.47
2018-12-06T03:37:48.725Z,-1.45
2018-12-06T03:40:16.224Z,-1.41
2018-12-06T03:42:43.760Z,-1.40
2018-12-06T03:45:11.344Z,-1.40
2018-12-06T03:47:38.869Z,-1.40
2018-12-06T03:50:06.456Z,-1.41
2018-12-06T03:52:34.250Z,-1.40
2018-12-06T03:55:01.781Z,-1.36
2018-12-06T03:57:29.381Z,-1.32
2018-12-06T03:59:59.740Z,-1.29
2018-12-06T04:02:28.185Z,-1.25
2018-12-06T04:04:55.868Z,-1.22
2018-12-06T04:07:23.364Z,-1.20
2018-12-06T04:09:51.605Z,-1.19
2018-12-06T04:12:19.148Z,-1.19
2018-12-06T04:14:46.640Z,-1.19
2018-12-06T04:17:14.382Z,-1.22
2018-12-06T04:19:41.876Z,-1.21
2018-12-06T04:22:09.357Z,-1.21
2018-12-06T04:24:36.897Z,-1.18
2018-12-06T04:27:05.376Z,-1.20
2018-12-06T04:29:33.005Z,-1.19
2018-12-06T04:32:00.513Z,-1.19
2018-12-06T04:34:28.008Z,-1.20
2018-12-06T04:36:55.591Z,-1.19
2018-12-06T04:39:23.085Z,-1.22
2018-12-06T04:41:50.876Z,-1.23
2018-12-06T04:44:18.444Z,-1.23
2018-12-06T04:46:45.983Z,-1.24
2018-12-06T04:49:13.477Z,-1.25
2018-12-06T04:51:41.143Z,-1.25
2018-12-06T04:54:08.627Z,-1.27
2018-12-06T04:56:36.132Z,-1.28
2018-12-06T04:59:03.765Z,-1.27
2018-12-06T05:01:31.272Z,-1.28
2018-12-06T05:03:58.967Z,-1.28
2018-12-06T05:06:26.448Z,-1.28
2018-12-06T05:08:53.928Z,-1.29
2018-12-06T05:11:21.520Z,-1.30
2018-12-06T05:13:49.002Z,-1.32
2018-12-06T05:16:17.452Z,-1.33
2018-12-06T05:18:44.932Z,-1.38
2018-12-06T05:21:12.530Z,-1.41
2018-12-06T05:23:40.067Z,-1.42
2018-12-06T05:26:07.645Z,-1.44
2018-12-06T05:28:35.168Z,-1.45
2018-12-06T05:31:02.833Z,-1.47
2018-12-06T05:33:30.330Z,-1.45
2018-12-06T05:35:57.823Z,-1.43
2018-12-06T05:38:25.458Z,-1.44
2018-12-06T05:40:53.040Z,-1.42
2018-12-06T05:43:20.706Z,-1.42
2018-12-06T05:45:48.188Z,-1.39
2018-12-06T05:48:15.711Z,-1.38
2018-12-06T05:50:43.231Z,-1.37
2018-12-06T05:53:10.793Z,-1.32
2018-12-06T05:55:39.527Z,-1.25
2018-12-06T05:58:07.125Z,-1.21
2018-12-06T06:00:34.681Z,-1.18
2018-12-06T06:03:02.216Z,-1.11
2018-12-06T06:05:29.716Z,-1.06
2018-12-06T06:07:57.456Z,-1.02
2018-12-06T06:10:24.946Z,-1.02
2018-12-06T06:12:52.429Z,-0.99
2018-12-06T06:15:19.969Z,-0.98
2018-12-06T06:17:47.545Z,-0.99
2018-12-06T06:20:15.106Z,-0.99
2018-12-06T06:22:42.598Z,-1.01
2018-12-06T06:25:10.133Z,-1.04
2018-12-06T06:27:37.617Z,-1.09
2018-12-06T06:30:06.280Z,-1.11
2018-12-06T06:32:33.904Z,-1.14
2018-12-06T06:35:01.446Z,-1.14
2018-12-06T06:37:29.121Z,-1.13
2018-12-06T06:39:56.603Z,-1.16
2018-12-06T06:42:24.094Z,-1.19
2018-12-06T06:44:51.621Z,-1.21
2018-12-06T06:47:19.117Z,-1.24
2018-12-06T06:49:46.677Z,-1.23
2018-12-06T06:52:14.175Z,-1.26
2018-12-06T06:54:41.708Z,-1.22
2018-12-06T06:57:10.165Z,-1.24
2018-12-06T06:59:37.649Z,-1.26
2018-12-06T07:02:05.693Z,-1.27
2018-12-06T07:04:33.831Z,-1.30
2018-12-06T07:07:01.394Z,-1.32
2018-12-06T07:09:28.943Z,-1.35
2018-12-06T07:11:56.431Z,-1.33
2018-12-06T07:14:24.087Z,-1.30
2018-12-06T07:16:51.568Z,-1.25
2018-12-06T07:19:19.115Z,-1.20
2018-12-06T07:21:46.654Z,-1.18
2018-12-06T07:24:16.117Z,-1.15
2018-12-06T07:26:43.965Z,-1.15
2018-12-06T07:29:11.586Z,-1.10
2018-12-06T07:31:39.070Z,-1.04
2018-12-06T07:34:06.659Z,-1.01
2018-12-06T07:36:34.219Z,-0.96
2018-12-06T07:39:01.781Z,-0.93
2018-12-06T07:41:29.345Z,-0.89
2018-12-06T07:43:56.844Z,-0.87
2018-12-06T07:46:24.671Z,-0.82
2018-12-06T07:48:52.211Z,-0.82
2018-12-06T07:51:19.710Z,-0.77
2018-12-06T07:53:47.237Z,-0.74
2018-12-06T07:56:14.713Z,-0.70
2018-12-06T07:58:42.444Z,-0.67
2018-12-06T08:01:09.985Z,-0.65
2018-12-06T08:03:37.526Z,-0.60
2018-12-06T08:06:05.080Z,-0.57
2018-12-06T08:08:32.583Z,-0.52
2018-12-06T08:11:00.240Z,-0.49
2018-12-06T08:13:27.731Z,-0.43
2018-12-06T08:15:55.216Z,-0.40
2018-12-06T08:18:22.740Z,-0.36
2018-12-06T08:20:50.278Z,-0.32
2018-12-06T08:23:17.843Z,-0.28
2018-12-06T08:25:45.348Z,-0.25
2018-12-06T08:28:13.021Z,-0.22
2018-12-06T08:30:42.164Z,-0.18
2018-12-06T08:33:09.913Z,-0.15
2018-12-06T08:35:37.446Z,-0.10
2018-12-06T08:38:04.981Z,-0.04
2018-12-06T08:40:32.740Z,0.00
2018-12-06T08:43:00.304Z,0.03
2018-12-06T08:45:27.783Z,0.07
2018-12-06T08:47:55.419Z,0.10
2018-12-06T08:50:22.993Z,0.12
2018-12-06T08:52:50.666Z,0.14
2018-12-06T08:55:19.120Z,0.13
2018-12-06T08:57:46.623Z,0.14
2018-12-06T09:00:14.152Z,0.13
2018-12-06T09:02:41.641Z,0.15
2018-12-06T09:05:09.358Z,0.15
2018-12-06T09:07:36.873Z,0.16
2018-12-06T09:10:06.082Z,0.18
2018-12-06T09:12:33.639Z,0.22
2018-12-06T09:15:01.134Z,0.23
2018-12-06T09:17:29.069Z,0.28
2018-12-06T09:19:56.646Z,0.32
2018-12-06T09:22:24.544Z,0.39
2018-12-06T09:24:52.224Z,0.47
2018-12-06T09:27:19.700Z,0.53
2018-12-06T09:29:47.320Z,0.61
2018-12-06T09:32:14.817Z,0.68
2018-12-06T09:34:42.296Z,0.73
2018-12-06T09:37:09.849Z,0.75
2018-12-06T09:39:37.328Z,0.79
2018-12-06T09:42:05.037Z,0.87
2018-12-06T09:44:32.644Z,0.96
2018-12-06T09:47:00.124Z,1.02
2018-12-06T09:49:27.667Z,1.05
2018-12-06T09:51:55.150Z,1.09
2018-12-06T09:54:22.631Z,1.10
2018-12-06T09:56:50.147Z,1.08
2018-12-06T09:59:17.655Z,1.07
2018-12-06T10:01:45.357Z,1.03
2018-12-06T10:04:12.916Z,1.07
2018-12-06T10:06:40.472Z,1.07
2018-12-06T10:09:07.960Z,1.14
2018-12-06T10:11:35.783Z,1.23
2018-12-06T10:14:03.354Z,1.31
2018-12-06T10:16:38.008Z,1.38
2018-12-06T10:19:05.520Z,1.41
2018-12-06T10:21:33.018Z,1.45
2018-12-06T10:24:00.537Z,1.46
2018-12-06T10:26:28.026Z,1.49
2018-12-06T10:28:55.667Z,1.56
2018-12-06T10:31:23.147Z,1.69
2018-12-06T10:33:50.659Z,1.79
2018-12-06T10:36:18.228Z,1.90
2018-12-06T10:38:45.741Z,2.04
2018-12-06T10:41:13.261Z,2.19
2018-12-06T10:43:40.756Z,2.27
2018-12-06T10:46:08.273Z,2.32
2018-12-06T10:48:35.762Z,2.38
2018-12-06T10:51:15.075Z,2.39
2018-12-06T10:53:42.554Z,2.43
2018-12-06T10:56:10.060Z,2.50
2018-12-06T10:58:37.548Z,2.57
2018-12-06T11:01:08.688Z,2.65
2018-12-06T11:07:07.320Z,2.75
2018-12-06T11:09:34.809Z,2.78
2018-12-06T11:12:02.328Z,2.75
2018-12-06T11:14:29.965Z,2.80
2018-12-06T11:16:57.467Z,2.79
2018-12-06T11:19:25.194Z,2.76
2018-12-06T11:21:52.678Z,2.75
2018-12-06T11:24:20.232Z,2.72
2018-12-06T11:26:47.760Z,2.72
2018-12-06T11:29:15.357Z,2.72
2018-12-06T11:31:42.992Z,2.74
2018-12-06T11:34:10.585Z,2.80
2018-12-06T11:36:38.077Z,2.82
2018-12-06T11:39:07.691Z,2.81
2018-12-06T11:41:42.769Z,2.81
2018-12-06T11:44:05.210Z,2.85
2018-12-06T11:46:32.709Z,2.87
2018-12-06T11:49:00.270Z,2.88
2018-12-06T11:51:27.812Z,2.89
2018-12-06T11:53:55.301Z,2.94
2018-12-06T11:56:22.963Z,2.97
2018-12-06T11:58:50.592Z,3.00
2018-12-06T12:01:18.251Z,3.03
2018-12-06T12:03:45.770Z,3.03
2018-12-06T12:06:13.328Z,3.04
2018-12-06T12:08:41.095Z,3.05
2018-12-06T12:11:08.590Z,3.07
2018-12-06T12:13:36.111Z,3.09
2018-12-06T12:16:03.633Z,3.15
2018-12-06T12:18:31.114Z,3.17
2018-12-06T12:20:58.727Z,3.23
2018-12-06T12:23:26.217Z,3.27
2018-12-06T12:25:53.723Z,3.34
2018-12-06T12:28:21.244Z,3.45
2018-12-06T12:30:48.724Z,3.54
2018-12-06T12:33:16.248Z,3.64
2018-12-06T12:35:43.735Z,3.72
2018-12-06T12:38:11.280Z,3.79
2018-12-06T12:40:38.823Z,3.95
2018-12-06T12:43:06.374Z,4.13
2018-12-06T12:45:33.884Z,4.28
2018-12-06T12:48:01.394Z,4.38
2018-12-06T12:50:28.940Z,4.43
2018-12-06T12:52:56.476Z,4.40
2018-12-06T12:55:24.026Z,4.20
2018-12-06T12:57:51.521Z,4.05
2018-12-06T13:00:19.015Z,3.95
2018-12-06T13:02:46.575Z,3.85
2018-12-06T13:05:14.147Z,3.74
2018-12-06T13:07:41.635Z,3.69
2018-12-06T13:10:09.345Z,3.61
2018-12-06T13:12:36.831Z,3.56
2018-12-06T13:15:04.731Z,3.50
2018-12-06T13:17:32.389Z,3.45
2018-12-06T13:20:00.267Z,3.44
2018-12-06T13:22:27.774Z,3.41
2018-12-06T13:24:55.294Z,3.41
2018-12-06T13:27:22.836Z,3.42
2018-12-06T13:29:50.357Z,3.44
2018-12-06T13:32:17.906Z,3.49
2018-12-06T13:34:45.452Z,3.52
2018-12-06T13:37:13.214Z,3.55
2018-12-06T13:39:40.708Z,3.55
2018-12-06T13:42:08.289Z,3.53
2018-12-06T13:44:35.820Z,3.49
2018-12-06T13:47:03.320Z,3.46
2018-12-06T13:49:31.051Z,3.46
2018-12-06T13:51:58.564Z,3.45
2018-12-06T13:54:27.142Z,3.40
2018-12-06T13:56:54.829Z,3.37
2018-12-06T13:59:22.371Z,3.32
2018-12-06T14:01:50.200Z,3.27
2018-12-06T14:04:17.701Z,3.24
2018-12-06T14:06:45.222Z,3.20
2018-12-06T14:09:12.761Z,3.15
2018-12-06T14:11:40.255Z,3.12
2018-12-06T14:14:08.777Z,3.09
2018-12-06T14:16:36.279Z,3.09
2018-12-06T14:19:05.820Z,3.07
2018-12-06T14:21:33.349Z,3.05
2018-12-06T14:24:00.864Z,3.02
2018-12-06T14:26:30.459Z,3.01
2018-12-06T14:28:58.088Z,3.01
2018-12-06T14:31:25.683Z,2.99
2018-12-06T14:33:53.175Z,2.98
2018-12-06T14:36:20.697Z,2.96
2018-12-06T14:38:48.315Z,2.97
2018-12-06T14:41:15.851Z,2.95
2018-12-06T14:43:43.400Z,2.93
2018-12-06T14:46:10.889Z,2.92
2018-12-06T14:48:38.546Z,2.89
2018-12-06T14:51:06.153Z,2.87
2018-12-06T14:53:33.681Z,2.86
2018-12-06T14:56:01.259Z,2.86
2018-12-06T14:58:28.809Z,2.85
2018-12-06T15:00:56.339Z,2.84
2018-12-06T15:03:23.830Z,2.82
2018-12-06T15:05:51.904Z,2.83
2018-12-06T15:08:19.417Z,2.83
2018-12-06T15:10:48.009Z,2.82
2018-12-06T15:13:15.516Z,2.82
2018-12-06T15:15:42.997Z,2.82
2018-12-06T15:18:10.748Z,2.83
2018-12-06T15:20:38.332Z,2.79
2018-12-06T15:23:05.871Z,2.78
2018-12-06T15:25:33.396Z,2.79
2018-12-06T15:28:00.884Z,2.79
2018-12-06T15:30:28.589Z,2.79
2018-12-06T15:32:56.084Z,2.80
2018-12-06T15:35:24.090Z,2.82
2018-12-06T15:37:51.610Z,2.82
2018-12-06T15:40:19.104Z,2.84
2018-12-06T15:42:46.797Z,2.85
2018-12-06T15:45:14.302Z,2.86
2018-12-06T15:47:41.980Z,2.86
2018-12-06T15:50:09.826Z,2.87
2018-12-06T15:52:37.349Z,2.83
2018-12-06T15:55:06.475Z,2.87
2018-12-06T15:57:33.968Z,2.87
2018-12-06T16:00:01.457Z,2.88
2018-12-06T16:02:29.065Z,2.87
2018-12-06T16:04:56.570Z,2.88
2018-12-06T16:07:24.136Z,2.88
2018-12-06T16:09:51.656Z,2.85
2018-12-06T16:12:19.195Z,2.82
2018-12-06T16:14:46.739Z,2.78
2018-12-06T16:17:14.273Z,2.75
2018-12-06T16:19:41.788Z,2.76
2018-12-06T16:22:09.460Z,2.79
2018-12-06T16:24:36.944Z,2.76
2018-12-06T16:27:04.433Z,2.86
2018-12-06T16:29:31.989Z,2.89
2018-12-06T16:31:59.534Z,2.93
2018-12-06T16:34:27.209Z,2.95
2018-12-06T16:36:54.701Z,2.97
2018-12-06T16:39:22.213Z,2.99
2018-12-06T16:41:50.740Z,3.01
2018-12-06T16:44:18.290Z,3.04
2018-12-06T16:46:45.966Z,3.04
2018-12-06T16:49:13.577Z,3.05
2018-12-06T16:51:41.215Z,3.07
2018-12-06T16:54:09.967Z,3.07
2018-12-06T16:56:38.452Z,3.09
2018-12-06T16:59:07.349Z,3.09
2018-12-06T17:01:35.969Z,3.11
2018-12-06T17:04:04.412Z,3.12
2018-12-06T17:06:32.970Z,3.14
2018-12-06T17:09:01.445Z,3.15
2018-12-06T17:11:30.388Z,3.18
2018-12-06T17:13:58.925Z,3.20
2018-12-06T17:16:27.568Z,3.21
2018-12-06T17:18:56.025Z,3.23
2018-12-06T17:21:24.955Z,3.24
2018-12-06T17:23:53.533Z,3.26
2018-12-06T17:26:22.009Z,3.29
2018-12-06T17:28:50.542Z,3.32
2018-12-06T17:31:19.040Z,3.31
2018-12-06T17:33:47.585Z,3.31
2018-12-06T17:36:16.069Z,3.31
2018-12-06T17:38:44.601Z,3.33
2018-12-06T17:41:13.544Z,3.34
2018-12-06T17:43:42.105Z,3.34
2018-12-06T17:46:11.026Z,3.34
2018-12-06T17:48:39.573Z,3.33
2018-12-06T17:51:08.198Z,3.34
2018-12-06T17:53:36.677Z,3.34
2018-12-06T17:56:05.687Z,3.35
2018-12-06T17:58:35.147Z,3.35
2018-12-06T18:01:03.946Z,3.35
2018-12-06T18:03:32.607Z,3.35
2018-12-06T18:06:01.669Z,3.35
2018-12-06T18:08:30.183Z,3.34
2018-12-06T18:10:58.762Z,3.35
2018-12-06T18:13:27.318Z,3.34
2018-12-06T18:15:55.862Z,3.34
2018-12-06T18:18:24.429Z,3.33
2018-12-06T18:20:53.818Z,3.34
2018-12-06T18:23:22.373Z,3.34
2018-12-06T18:25:51.011Z,3.34
2018-12-06T18:28:19.723Z,3.34
2018-12-06T18:30:48.251Z,3.34
2018-12-06T18:33:16.799Z,3.34
2018-12-06T18:35:45.396Z,3.34
2018-12-06T18:38:14.449Z,3.34
2018-12-06T18:40:43.201Z,3.34
2018-12-06T18:43:11.814Z,3.34
2018-12-06T18:45:40.367Z,3.34
2018-12-06T18:48:08.938Z,3.34
2018-12-06T18:50:37.788Z,3.34
2018-12-06T18:53:06.676Z,3.34
2018-12-06T18:55:35.321Z,3.34
2018-12-06T18:58:03.996Z,3.34
2018-12-06T19:00:33.908Z,3.34
2018-12-06T19:03:02.519Z,3.34
2018-12-06T19:05:31.121Z,3.34
2018-12-06T19:07:59.979Z,3.34
2018-12-06T19:10:28.661Z,3.34
2018-12-06T19:12:57.250Z,3.34
2018-12-06T19:15:26.041Z,3.34
2018-12-06T19:17:55.028Z,3.34
2018-12-06T19:20:23.694Z,3.34
2018-12-06T19:22:52.602Z,3.34
2018-12-06T19:25:21.380Z,3.34
2018-12-06T19:27:50.309Z,3.34
2018-12-06T19:30:19.301Z,3.34
2018-12-06T19:32:48.624Z,3.34
2018-12-06T19:35:17.581Z,3.34
2018-12-06T19:37:47.034Z,3.34
2018-12-06T19:40:16.090Z,3.34
2018-12-06T19:42:44.786Z,3.34
2018-12-06T19:45:13.480Z,3.34
2018-12-06T19:47:42.168Z,3.34
2018-12-06T19:50:10.988Z,3.34
2018-12-06T19:52:39.940Z,3.34
2018-12-06T19:55:08.726Z,3.34
2018-12-06T19:57:37.447Z,3.34
2018-12-06T20:00:08.469Z,3.34
2018-12-06T20:02:37.440Z,3.34
2018-12-06T20:05:06.740Z,3.34
2018-12-06T20:07:35.741Z,3.34
2018-12-06T20:10:07.044Z,3.34
2018-12-06T20:12:35.817Z,3.34
2018-12-06T20:15:05.482Z,3.34
2018-12-06T20:17:34.502Z,3.34
2018-12-06T20:20:04.061Z,3.34
2018-12-06T20:22:32.822Z,3.34
2018-12-06T20:25:02.257Z,3.34
2018-12-06T20:27:31.052Z,3.34
2018-12-06T20:30:00.058Z,3.34
2018-12-06T20:32:28.857Z,3.34
2018-12-06T20:34:57.837Z,3.34
2018-12-06T20:37:26.834Z,3.34
2018-12-06T20:39:55.610Z,3.34
2018-12-06T20:42:24.347Z,3.34
2018-12-06T20:44:54.075Z,3.34
2018-12-06T20:47:22.810Z,3.34
2018-12-06T20:49:51.614Z,3.34
2018-12-06T20:52:20.338Z,3.34
2018-12-06T20:54:49.052Z,3.34
2018-12-06T20:57:17.803Z,3.34
2018-12-06T20:59:46.519Z,3.34
2018-12-06T21:02:15.259Z,3.34
2018-12-06T21:04:43.935Z,3.34
2018-12-06T21:07:12.851Z,3.34
2018-12-06T21:09:41.548Z,3.34
2018-12-06T21:12:10.275Z,3.34
2018-12-06T21:14:39.027Z,3.34
2018-12-06T21:17:07.750Z,3.34
2018-12-06T21:19:36.552Z,3.34
2018-12-06T21:22:05.241Z,3.34
2018-12-06T21:24:34.104Z,3.34
2018-12-06T21:27:02.788Z,3.34
2018-12-06T21:29:31.467Z,3.34
2018-12-06T21:32:00.275Z,3.34
2018-12-06T21:34:28.960Z,3.34
2018-12-06T21:36:57.777Z,3.34
2018-12-06T21:39:26.438Z,3.34
2018-12-06T21:41:55.113Z,3.34
2018-12-06T21:44:23.907Z,3.34
2018-12-06T21:46:52.601Z,3.34
2018-12-06T21:49:21.440Z,3.34
2018-12-06T21:51:50.104Z,3.34
2018-12-06T21:54:18.793Z,3.34
2018-12-06T21:56:47.465Z,3.34
2018-12-06T21:59:16.092Z,3.34
2018-12-06T22:01:44.705Z,3.34
2018-12-06T22:04:15.343Z,3.34
2018-12-06T22:06:43.958Z,3.34
2018-12-06T22:09:12.588Z,3.34
2018-12-06T22:11:41.266Z,3.34
2018-12-06T22:14:10.014Z,3.34
2018-12-06T22:16:39.585Z,3.34
2018-12-06T22:19:08.161Z,2.78
2018-12-06T22:21:36.740Z,2.78
2018-12-06T22:24:05.296Z,2.81
2018-12-06T22:26:33.883Z,2.83
2018-12-06T22:29:02.889Z,2.86
2018-12-06T22:31:31.412Z,2.87
2018-12-06T22:33:59.972Z,2.89
2018-12-06T22:36:29.396Z,2.90
2018-12-06T22:38:58.073Z,2.91
2018-12-06T22:41:26.588Z,2.92
2018-12-06T22:43:55.263Z,2.93
2018-12-06T22:46:23.771Z,2.94
2018-12-06T22:48:52.239Z,2.96
2018-12-06T22:51:24.203Z,2.97
2018-12-06T22:53:49.523Z,2.98
2018-12-06T22:56:17.015Z,3.00
2018-12-06T22:58:44.548Z,3.01
2018-12-06T23:01:13.114Z,3.03
2018-12-06T23:03:40.768Z,3.05
2018-12-06T23:06:08.262Z,3.08
2018-12-06T23:08:35.749Z,3.11
2018-12-06T23:11:03.407Z,3.12
2018-12-06T23:13:30.886Z,3.15
2018-12-06T23:15:58.433Z,3.18
2018-12-06T23:18:26.870Z,3.20
2018-12-06T23:20:54.456Z,3.22
2018-12-06T23:23:21.933Z,3.24
2018-12-06T23:25:49.573Z,3.25
2018-12-06T23:28:17.086Z,3.27
2018-12-06T23:30:44.588Z,3.28
2018-12-06T23:33:12.200Z,3.28
2018-12-06T23:35:39.672Z,3.31
2018-12-06T23:38:07.188Z,3.32
2018-12-06T23:40:34.707Z,3.33
2018-12-06T23:43:02.197Z,3.35
2018-12-06T23:45:29.713Z,3.37
2018-12-06T23:47:57.216Z,3.39
2018-12-06T23:50:24.730Z,3.40
2018-12-06T23:52:52.294Z,3.44
2018-12-06T23:55:20.365Z,3.45
2018-12-06T23:57:47.844Z,3.48
